Time;durP1;ratioP1;P1;durP2;ratioP2;P2;SDS_P1;SDS_P2;PMS_P1;PMS_P2;Temp;Humidity;BMP_temperature;BMP_pressure;BME280_temperature;BME280_humidity;BME280_pressure;Samples;Min_cycle;Max_cycle;Signal;HPM_P1;HPM_P2
2023/09/20 00:01:53;;;;;;;6.97;1.90;;;;;;;22.94;51.74;100846.22;4997469;28;20027;-66
2023/09/20 00:04:19;;;;;;;5.22;1.38;;;;;;;22.92;51.71;100841.09;4998125;28;20033;-66
2023/09/20 00:06:46;;;;;;;4.80;1.38;;;;;;;22.92;51.72;100845.56;4998125;28;20080;-68
2023/09/20 00:09:13;;;;;;;3.63;1.40;;;;;;;22.92;52.02;100842.91;4998158;28;20029;-69
2023/09/20 00:11:39;;;;;;;5.13;1.60;;;;;;;22.92;51.79;100837.56;4997734;28;20041;-68
2023/09/20 00:14:04;;;;;;;5.47;1.48;;;;;;;22.91;51.48;100835.94;4997925;28;20037;-68
2023/09/20 00:16:29;;;;;;;4.53;1.55;;;;;;;22.92;51.68;100840.25;4997685;28;20504;-69
2023/09/20 00:18:55;;;;;;;4.88;1.45;;;;;;;22.91;51.95;100833.28;4997708;28;20061;-70
2023/09/20 00:21:20;;;;;;;3.88;1.83;;;;;;;22.90;51.89;100828.94;4997556;28;20465;-69
2023/09/20 00:23:46;;;;;;;5.10;1.67;;;;;;;22.90;51.68;100835.06;4997703;28;20043;-68
2023/09/20 00:26:13;;;;;;;6.80;1.60;;;;;;;22.90;51.49;100828.94;4997813;28;20070;-68
2023/09/20 00:28:39;;;;;;;4.18;1.40;;;;;;;22.90;51.44;100831.59;4997379;28;20391;-69
2023/09/20 00:31:05;;;;;;;7.10;1.60;;;;;;;22.88;51.54;100826.44;4995822;28;20054;-67
2023/09/20 00:33:31;;;;;;;5.57;1.88;;;;;;;22.88;51.60;100830.94;4997620;28;20049;-69
2023/09/20 00:35:56;;;;;;;4.43;1.45;;;;;;;22.88;51.51;100822.97;4997250;28;20475;-69
2023/09/20 00:38:21;;;;;;;4.50;1.50;;;;;;;22.88;51.49;100825.63;4997397;28;20104;-70
2023/09/20 00:40:49;;;;;;;4.60;1.40;;;;;;;22.88;51.68;100818.47;4996832;28;20029;-70
2023/09/20 00:43:22;;;;;;;5.70;1.52;;;;;;;22.87;51.87;100829.25;4996664;28;20276;-67
2023/09/20 00:45:48;;;;;;;3.42;1.30;;;;;;;22.88;51.65;100822.97;4997343;28;20049;-67
2023/09/20 00:48:13;;;;;;;5.90;1.75;;;;;;;22.88;51.77;100812.31;4996780;28;20399;-69
2023/09/20 00:50:41;;;;;;;5.05;1.55;;;;;;;22.88;51.72;100822.97;4997052;28;20066;-69
2023/09/20 00:53:12;;;;;;;4.75;1.70;;;;;;;22.87;51.41;100822.09;4997390;28;20064;-69
2023/09/20 00:55:38;;;;;;;5.28;1.50;;;;;;;22.87;51.71;100813.31;4996534;28;20034;-67
2023/09/20 00:58:07;;;;;;;4.72;1.55;;;;;;;22.87;51.72;100821.28;4996845;28;20073;-66
2023/09/20 01:00:37;;;;;;;5.10;1.52;;;;;;;22.85;51.79;100813.47;4997055;28;20034;-67
2023/09/20 01:03:03;;;;;;;4.90;1.42;;;;;;;22.85;51.73;100817.94;4997263;28;20061;-68
2023/09/20 01:05:32;;;;;;;4.90;1.50;;;;;;;22.85;51.54;100821.44;4996890;28;20069;-67
2023/09/20 01:07:59;;;;;;;3.58;1.50;;;;;;;22.87;51.87;100831.91;4996500;28;20056;-68
2023/09/20 01:10:26;;;;;;;4.50;1.45;;;;;;;22.85;52.00;100826.75;4996786;28;20088;-69
2023/09/20 01:12:51;;;;;;;3.95;1.38;;;;;;;22.86;51.73;100827.56;4997395;28;20036;-67
2023/09/20 01:15:16;;;;;;;4.65;1.50;;;;;;;22.85;51.78;100820.63;4996866;28;20109;-67
2023/09/20 01:17:46;;;;;;;3.45;1.40;;;;;;;22.83;51.44;100821.59;4997147;28;20034;-67
2023/09/20 01:20:18;;;;;;;4.85;2.13;;;;;;;22.84;51.40;100819.75;4996907;28;20438;-68
2023/09/20 01:22:43;;;;;;;3.67;1.60;;;;;;;22.84;51.67;100817.09;4996848;28;20065;-68
2023/09/20 01:25:11;;;;;;;5.60;1.50;;;;;;;22.85;51.96;100817.94;4996854;28;20070;-68
2023/09/20 01:27:38;;;;;;;4.45;1.80;;;;;;;22.83;51.54;100810.97;4996751;28;20387;-68
2023/09/20 01:30:05;;;;;;;5.22;1.50;;;;;;;22.84;51.90;100806.47;4996953;28;20081;-67
2023/09/20 01:32:30;;;;;;;5.15;1.75;;;;;;;22.84;51.44;100806.47;4996803;28;20038;-66
2023/09/20 01:34:56;;;;;;;3.60;1.30;;;;;;;22.81;51.54;100798.81;4996860;28;20049;-66
2023/09/20 01:37:21;;;;;;;4.90;1.80;;;;;;;22.84;51.89;100795.84;4996215;28;20045;-67
2023/09/20 01:39:47;;;;;;;3.85;1.48;;;;;;;22.82;51.33;100803.97;4997155;28;20034;-66
2023/09/20 01:42:12;;;;;;;4.22;1.58;;;;;;;22.80;51.46;100792.69;4996177;28;20030;-65
2023/09/20 01:44:37;;;;;;;4.40;1.50;;;;;;;22.82;51.89;100787.22;4996298;28;20471;-67
2023/09/20 01:47:04;;;;;;;3.75;1.30;;;;;;;22.81;51.75;100790.84;4995761;28;20030;-66
2023/09/20 01:49:32;;;;;;;3.75;1.52;;;;;;;22.82;52.06;100787.22;4995206;28;20105;-67
2023/09/20 01:51:58;;;;;;;4.03;1.40;;;;;;;22.81;51.66;100786.38;4996072;28;20026;-67
2023/09/20 01:54:23;;;;;;;4.05;1.60;;;;;;;22.79;51.94;100777.72;4996730;28;20037;-67
2023/09/20 01:56:49;;;;;;;5.47;1.60;;;;;;;22.79;51.72;100783.03;4996805;28;20043;-66
2023/09/20 01:59:15;;;;;;;3.67;1.38;;;;;;;22.79;51.87;100782.19;4996766;28;20495;-68
2023/09/20 02:01:41;;;;;;;5.30;1.50;;;;;;;22.79;51.95;100785.69;4996402;28;20034;-68
2023/09/20 02:04:06;;;;;;;4.10;1.48;;;;;;;22.79;52.07;100777.72;4996598;28;20039;-68
2023/09/20 02:06:32;;;;;;;4.35;1.40;;;;;;;22.78;51.73;100770.75;4996121;28;21688;-66
2023/09/20 02:08:57;;;;;;;4.47;1.70;;;;;;;22.79;51.93;100772.41;4999105;28;20113;-67
2023/09/20 02:11:24;;;;;;;5.85;1.40;;;;;;;22.78;51.74;100773.41;5000450;28;20066;-66
2023/09/20 02:13:49;;;;;;;3.58;1.48;;;;;;;22.78;51.77;100764.59;5000440;28;20034;-66
2023/09/20 02:16:14;;;;;;;5.32;1.60;;;;;;;22.78;52.13;100762.78;4999881;28;20460;-67
2023/09/20 02:18:39;;;;;;;4.17;1.60;;;;;;;22.78;51.76;100764.59;4999655;28;20037;-66
2023/09/20 02:21:06;;;;;;;4.25;1.50;;;;;;;22.79;51.84;100763.59;4990085;28;20899;-66
2023/09/20 02:23:32;;;;;;;5.53;1.85;;;;;;;22.77;52.27;100766.41;5000234;28;20058;-66
2023/09/20 02:25:57;;;;;;;6.15;1.67;;;;;;;22.78;51.96;100767.25;5000375;28;20061;-68
2023/09/20 02:28:22;;;;;;;5.35;2.00;;;;;;;22.77;52.09;100747.00;5000254;28;20030;-67
2023/09/20 02:30:50;;;;;;;4.25;1.40;;;;;;;22.77;52.23;100752.31;4999469;28;20383;-67
2023/09/20 02:33:16;;;;;;;4.38;1.48;;;;;;;22.76;51.88;100743.50;4999742;28;20544;-67
2023/09/20 02:35:41;;;;;;;4.53;1.58;;;;;;;22.77;51.83;100749.66;4998995;28;20038;-65
2023/09/20 02:38:07;;;;;;;4.10;1.45;;;;;;;22.76;52.24;100759.44;4997676;28;20080;-65
2023/09/20 02:40:35;;;;;;;4.63;1.40;;;;;;;22.76;52.08;100748.81;4999701;28;20427;-66
2023/09/20 02:43:03;;;;;;;3.53;1.60;;;;;;;22.77;52.13;100747.00;4999460;28;20359;-69
2023/09/20 02:45:29;;;;;;;4.57;1.38;;;;;;;22.75;52.04;100747.16;5014557;28;20441;-66
2023/09/20 02:47:55;;;;;;;4.90;1.58;;;;;;;22.77;51.88;100747.81;4999532;28;20594;-69
2023/09/20 02:50:23;;;;;;;5.20;1.60;;;;;;;22.76;52.24;100740.84;4998942;28;20038;-68
2023/09/20 02:52:51;;;;;;;5.22;1.88;;;;;;;22.74;52.35;100734.84;4999525;28;20032;-69
2023/09/20 02:55:20;;;;;;;4.15;1.35;;;;;;;22.75;52.24;100731.22;4999316;28;20129;-66
2023/09/20 02:57:50;;;;;;;3.85;1.30;;;;;;;22.75;52.36;100731.22;4999327;28;20030;-67
2023/09/20 03:00:21;;;;;;;3.85;1.50;;;;;;;22.76;51.84;100729.38;4999381;28;20117;-68
2023/09/20 03:02:51;;;;;;;4.10;1.58;;;;;;;22.76;52.15;100724.06;4998839;28;20038;-68
2023/09/20 03:05:23;;;;;;;5.45;1.50;;;;;;;22.75;51.82;100725.09;4999522;28;20061;-68
2023/09/20 03:07:50;;;;;;;4.35;1.50;;;;;;;22.75;51.84;100725.09;5014298;28;20030;-69
2023/09/20 03:10:19;;;;;;;4.18;1.50;;;;;;;22.75;52.28;100727.75;4998035;28;20033;-69
2023/09/20 03:12:46;;;;;;;4.95;1.67;;;;;;;22.75;51.97;100722.44;4998488;28;20033;-66
2023/09/20 03:15:17;;;;;;;3.40;1.40;;;;;;;22.75;52.32;100722.44;4998381;28;20084;-68
2023/09/20 03:17:44;;;;;;;5.20;1.30;;;;;;;22.74;52.05;100705.63;4998785;28;20029;-67
2023/09/20 03:20:10;;;;;;;3.53;1.50;;;;;;;22.74;51.76;100707.47;4998732;28;20030;-67
2023/09/20 03:22:37;;;;;;;4.07;1.65;;;;;;;22.74;51.86;100700.31;4998928;28;20030;-67
2023/09/20 03:25:04;;;;;;;5.10;1.30;;;;;;;22.73;51.94;100697.81;4998805;28;20037;-67
2023/09/20 03:27:30;;;;;;;3.35;1.33;;;;;;;22.73;51.98;100700.47;4998794;28;20117;-69
2023/09/20 03:29:56;;;;;;;3.78;1.40;;;;;;;22.74;51.84;100697.66;4998371;28;20030;-65
2023/09/20 03:32:22;;;;;;;5.80;1.90;;;;;;;22.73;51.92;100696.00;4997824;28;20454;-69
2023/09/20 03:34:48;;;;;;;5.72;1.50;;;;;;;22.73;52.26;100706.66;4999113;28;20035;-66
2023/09/20 03:37:13;;;;;;;8.75;1.60;;;;;;;22.73;52.36;100706.66;4998466;28;20647;-66
2023/09/20 03:39:40;;;;;;;5.22;1.70;;;;;;;22.71;51.91;100705.94;4998782;28;20033;-66
2023/09/20 03:42:11;;;;;;;4.93;1.70;;;;;;;22.73;51.99;100716.41;4998177;28;20371;-68
2023/09/20 03:44:38;;;;;;;4.10;1.70;;;;;;;22.73;52.33;100708.44;4998097;28;20025;-67
2023/09/20 03:47:04;;;;;;;5.90;1.40;;;;;;;22.72;52.17;100710.28;4998472;28;20113;-65
2023/09/20 03:49:29;;;;;;;5.47;1.40;;;;;;;22.71;52.31;100707.78;4998527;28;20112;-66
2023/09/20 03:51:55;;;;;;;7.83;1.50;;;;;;;22.73;52.09;100711.09;4997819;28;20030;-65
2023/09/20 03:54:20;;;;;;;5.23;1.30;;;;;;;22.71;52.28;100710.44;4998444;28;20299;-66
2023/09/20 03:56:46;;;;;;;3.80;1.40;;;;;;;22.71;52.18;100707.78;4988574;28;20806;-65
2023/09/20 03:59:12;;;;;;;4.93;1.30;;;;;;;22.72;52.02;100706.81;4998017;28;20027;-66
2023/09/20 04:01:37;;;;;;;3.97;1.58;;;;;;;22.70;51.79;100704.31;4997882;28;20267;-69
2023/09/20 04:04:03;;;;;;;4.68;1.75;;;;;;;22.70;52.17;100709.63;4997950;28;20088;-65
2023/09/20 04:06:29;;;;;;;3.25;1.35;;;;;;;22.71;51.78;100697.97;4997778;28;20730;-67
2023/09/20 04:08:55;;;;;;;6.10;1.70;;;;;;;22.70;52.14;100700.78;4998010;28;20038;-65
2023/09/20 04:11:20;;;;;;;3.28;1.48;;;;;;;22.70;51.65;100703.44;4997671;28;20457;-67
2023/09/20 04:13:46;;;;;;;5.35;1.70;;;;;;;22.70;52.11;100699.00;4997437;28;20397;-66
2023/09/20 04:16:11;;;;;;;4.95;1.75;;;;;;;22.68;52.24;100698.28;4988229;28;20033;-66
2023/09/20 04:18:37;;;;;;;3.72;1.60;;;;;;;22.70;52.06;100692.81;4997544;28;20034;-65
2023/09/20 04:21:02;;;;;;;3.60;1.20;;;;;;;22.71;51.72;100699.81;4997621;28;20522;-67
2023/09/20 04:23:27;;;;;;;3.97;1.42;;;;;;;22.69;52.03;100684.03;4997792;28;20027;-67
2023/09/20 04:25:53;;;;;;;4.35;1.48;;;;;;;22.70;51.87;100691.03;4997585;28;20029;-65
2023/09/20 04:28:18;;;;;;;4.57;1.63;;;;;;;22.68;52.21;100685.00;4997067;28;20026;-65
2023/09/20 04:30:43;;;;;;;4.47;1.48;;;;;;;22.69;51.80;100683.22;4996936;28;20097;-66
2023/09/20 04:33:10;;;;;;;4.32;1.60;;;;;;;22.67;52.17;100678.06;4997629;28;20037;-67
2023/09/20 04:35:37;;;;;;;4.72;1.55;;;;;;;22.67;52.13;100670.09;4997270;28;20034;-66
2023/09/20 04:38:02;;;;;;;4.07;1.60;;;;;;;22.68;51.88;100670.91;4997341;28;20502;-68
2023/09/20 04:40:27;;;;;;;5.07;1.35;;;;;;;22.68;52.02;100662.94;4997441;28;20037;-68
2023/09/20 04:42:53;;;;;;;4.75;1.50;;;;;;;22.67;52.03;100661.25;4995709;28;20038;-67
2023/09/20 04:45:19;;;;;;;5.20;1.73;;;;;;;22.67;52.01;100658.59;4997127;28;20120;-67
2023/09/20 04:47:45;;;;;;;4.30;1.40;;;;;;;22.67;52.10;100662.13;4996840;28;20124;-67
2023/09/20 04:50:13;;;;;;;3.40;1.40;;;;;;;22.66;51.89;100671.06;4997349;28;20506;-66
2023/09/20 04:52:38;;;;;;;4.63;1.55;;;;;;;22.67;51.89;100667.44;4997161;28;20026;-68
2023/09/20 04:55:05;;;;;;;4.72;1.50;;;;;;;22.65;51.93;100672.03;4996910;28;20041;-67
2023/09/20 04:57:31;;;;;;;4.25;1.45;;;;;;;22.66;51.90;100663.09;4996727;28;20038;-67
2023/09/20 04:59:56;;;;;;;5.78;1.67;;;;;;;22.66;52.26;100659.63;4996252;28;20505;-66
2023/09/20 05:02:22;;;;;;;5.28;1.70;;;;;;;22.66;52.32;100662.28;4996655;28;20493;-66
2023/09/20 05:04:48;;;;;;;6.10;1.80;;;;;;;22.66;52.22;100656.97;4995861;28;20026;-67
2023/09/20 05:07:13;;;;;;;5.70;1.48;;;;;;;22.64;51.92;100649.97;4995350;28;20037;-68
2023/09/20 05:09:38;;;;;;;4.85;1.60;;;;;;;22.66;52.18;100651.66;4996865;28;20041;-67
2023/09/20 05:12:04;;;;;;;5.20;1.85;;;;;;;22.64;52.13;100654.47;4995837;28;20133;-66
2023/09/20 05:14:30;;;;;;;4.70;1.55;;;;;;;22.65;51.93;100661.41;4996813;28;20049;-66
2023/09/20 05:16:56;;;;;;;3.40;1.25;;;;;;;22.64;51.80;100649.16;4996361;28;20042;-65
2023/09/20 05:19:24;;;;;;;3.55;1.50;;;;;;;22.64;51.84;100654.47;4996588;28;20121;-67
2023/09/20 05:21:49;;;;;;;5.07;1.75;;;;;;;22.64;52.29;100663.25;4996165;28;20505;-65
2023/09/20 05:24:15;;;;;;;4.43;1.73;;;;;;;22.71;52.29;100666.09;4996304;28;20105;-68
2023/09/20 05:26:40;;;;;;;3.87;1.40;;;;;;;22.75;52.31;100658.66;4996286;28;20037;-68
2023/09/20 05:29:05;;;;;;;3.95;1.60;;;;;;;22.74;52.33;100657.81;4996343;28;20345;-67
2023/09/20 05:31:32;;;;;;;3.90;1.70;;;;;;;22.75;51.92;100654.19;4996179;28;20134;-68
2023/09/20 05:33:58;;;;;;;4.43;1.48;;;;;;;22.74;52.23;100655.16;4996539;28;20045;-67
2023/09/20 05:36:23;;;;;;;4.75;1.50;;;;;;;22.73;52.25;100650.84;4996615;28;20038;-67
2023/09/20 05:38:49;;;;;;;6.47;1.60;;;;;;;22.72;51.84;100651.84;4995873;28;20030;-66
2023/09/20 05:41:15;;;;;;;4.60;1.60;;;;;;;22.72;52.31;100648.34;4995520;28;20049;-67
2023/09/20 05:43:42;;;;;;;4.28;1.95;;;;;;;22.70;52.13;100648.53;4999161;28;20026;-68
2023/09/20 05:46:09;;;;;;;6.80;2.03;;;;;;;22.70;52.37;100645.88;5000027;28;20042;-65
2023/09/20 05:48:35;;;;;;;3.45;1.50;;;;;;;22.69;52.01;100640.72;5000259;28;20038;-66
2023/09/20 05:51:01;;;;;;;4.20;1.65;;;;;;;22.67;52.48;100638.22;5000207;28;20491;-68
2023/09/20 05:53:26;;;;;;;4.43;1.67;;;;;;;22.66;52.52;100638.38;5000112;28;20035;-68
2023/09/20 05:55:51;;;;;;;4.43;1.80;;;;;;;22.66;52.56;100638.38;5000248;28;20038;-66
2023/09/20 05:58:17;;;;;;;3.65;1.52;;;;;;;22.64;52.42;100641.19;5000110;28;20057;-63
2023/09/20 06:00:42;;;;;;;4.55;1.55;;;;;;;22.63;52.47;100645.66;4999825;28;20027;-63
2023/09/20 06:03:10;;;;;;;3.60;1.50;;;;;;;22.63;52.73;100648.31;4998912;28;20078;-66
2023/09/20 06:05:37;;;;;;;4.82;1.25;;;;;;;22.62;52.65;100654.63;4998896;28;20042;-62
2023/09/20 06:08:05;;;;;;;3.95;1.50;;;;;;;22.60;52.65;100659.25;5000418;28;20162;-64
2023/09/20 06:10:31;;;;;;;21.90;2.13;;;;;;;22.61;52.61;100647.63;4999016;28;20128;-62
2023/09/20 06:12:56;;;;;;;4.05;1.58;;;;;;;22.59;52.89;100639.00;5000461;28;20178;-62
2023/09/20 06:15:21;;;;;;;4.97;1.80;;;;;;;22.59;52.89;100641.66;5000277;28;20037;-61
2023/09/20 06:17:47;;;;;;;7.32;1.63;;;;;;;22.59;52.83;100638.19;5014992;28;20271;-64
2023/09/20 06:20:19;;;;;;;3.97;1.70;;;;;;;22.57;53.16;100634.84;5000050;28;20034;-64
2023/09/20 06:22:54;;;;;;;4.95;1.65;;;;;;;22.58;53.14;100629.34;4999965;28;20027;-62
2023/09/20 06:25:21;;;;;;;6.05;1.83;;;;;;;22.60;53.26;100638.00;4999631;28;20393;-65
2023/09/20 06:27:50;;;;;;;4.85;1.88;;;;;;;22.62;53.45;100640.50;4999204;28;20443;-62
2023/09/20 06:30:22;;;;;;;6.47;1.60;;;;;;;22.62;53.16;100641.34;4999555;28;20176;-62
2023/09/20 06:32:48;;;;;;;4.28;1.70;;;;;;;22.61;53.97;100639.66;4999817;28;20399;-63
2023/09/20 06:35:15;;;;;;;4.28;1.52;;;;;;;22.58;53.35;100642.63;4999139;28;20442;-65
2023/09/20 06:37:46;;;;;;;5.20;1.40;;;;;;;22.61;53.83;100650.28;4999674;28;20036;-62
2023/09/20 06:40:57;;;;;;;6.53;2.20;;;;;;;22.61;53.52;100641.50;4999678;28;20041;-64
2023/09/20 06:42:57;;;;;;;6.82;1.35;;;;;;;22.62;53.65;100636.03;4998900;28;20038;-63
2023/09/20 06:45:24;;;;;;;4.83;1.53;;;;;;;22.65;53.42;100640.16;4999097;28;20105;-63
2023/09/20 06:47:49;;;;;;;4.65;1.67;;;;;;;22.66;53.90;100638.38;4998096;28;20385;-65
2023/09/20 06:50:14;;;;;;;4.55;1.50;;;;;;;22.70;53.33;100642.34;4999823;28;20479;-64
2023/09/20 06:52:42;;;;;;;3.30;1.30;;;;;;;22.68;53.69;100639.84;4999544;28;20086;-62
2023/09/20 06:55:11;;;;;;;4.53;1.50;;;;;;;22.68;53.79;100637.19;4999141;28;20033;-63
2023/09/20 06:57:37;;;;;;;7.22;2.40;;;;;;;22.68;53.82;100642.50;4997365;28;20080;-62
2023/09/20 07:00:16;;;;;;;4.40;1.63;;;;;;;22.70;53.86;100648.53;4999463;28;20029;-65
2023/09/20 07:02:41;;;;;;;6.80;1.73;;;;;;;22.72;54.14;100643.88;4992759;28;20034;-65
2023/09/20 07:05:07;;;;;;;4.93;1.65;;;;;;;22.77;53.76;100633.59;4999049;28;20036;-66
2023/09/20 07:07:32;;;;;;;7.13;1.85;;;;;;;22.83;53.43;100640.09;4997273;28;20089;-67
2023/09/20 07:10:00;;;;;;;7.28;1.60;;;;;;;22.85;53.68;100645.25;4992434;28;20030;-63
2023/09/20 07:12:26;;;;;;;6.60;1.70;;;;;;;22.83;53.83;100638.25;4991141;28;20121;-64
2023/09/20 07:14:52;;;;;;;4.93;1.73;;;;;;;22.77;53.92;100636.25;4996019;28;20026;-62
2023/09/20 07:17:17;;;;;;;5.90;1.70;;;;;;;22.73;53.90;100632.25;4997269;28;20057;-67
2023/09/20 07:19:47;;;;;;;11.18;1.85;;;;;;;22.72;54.10;100622.63;4997781;28;20080;-63
2023/09/20 07:22:12;;;;;;;7.40;1.83;;;;;;;22.71;54.35;100631.56;4997589;28;20029;-62
2023/09/20 07:24:38;;;;;;;4.40;1.30;;;;;;;22.72;54.37;100632.41;5012827;28;20037;-63
2023/09/20 07:27:03;;;;;;;4.32;1.40;;;;;;;22.71;54.28;100639.53;4997653;28;20475;-61
2023/09/20 07:29:29;;;;;;;3.22;1.27;;;;;;;22.71;54.07;100626.25;4997621;28;20033;-63
2023/09/20 07:31:54;;;;;;;6.97;1.60;;;;;;;22.73;54.13;100637.56;4998600;28;20480;-64
2023/09/20 07:34:23;;;;;;;5.10;1.50;;;;;;;22.77;53.57;100644.22;4997925;28;20046;-63
2023/09/20 07:36:51;;;;;;;5.15;1.45;;;;;;;22.77;54.07;100641.56;4997544;28;20878;-63
2023/09/20 07:39:21;;;;;;;6.95;1.70;;;;;;;22.77;54.02;100630.94;4996202;28;20053;-67
2023/09/20 07:41:46;;;;;;;4.70;1.60;;;;;;;22.80;53.88;100632.44;4995643;28;20099;-65
2023/09/20 07:44:15;;;;;;;4.22;1.33;;;;;;;22.80;54.06;100635.09;4996882;28;20494;-63
2023/09/20 07:46:42;;;;;;;4.93;1.75;;;;;;;22.81;53.57;100637.59;4998022;28;20092;-63
2023/09/20 07:49:12;;;;;;;5.88;1.55;;;;;;;22.81;53.38;100637.59;4996868;28;20097;-64
2023/09/20 07:51:39;;;;;;;4.80;1.55;;;;;;;22.82;53.83;100638.44;4997239;28;20120;-65
2023/09/20 07:54:08;;;;;;;5.68;1.80;;;;;;;22.78;53.47;100645.91;4992691;28;20037;-64
2023/09/20 07:56:34;;;;;;;6.28;1.60;;;;;;;22.79;53.53;100636.09;4997542;28;20383;-64
2023/09/20 07:59:00;;;;;;;4.18;1.50;;;;;;;22.77;53.96;100635.41;4991024;28;20030;-63
2023/09/20 08:01:29;;;;;;;6.80;1.70;;;;;;;22.76;54.14;100629.25;4987551;28;20552;-64
2023/09/20 08:03:58;;;;;;;7.55;1.77;;;;;;;22.78;54.02;100619.31;4996621;28;20402;-63
2023/09/20 08:06:25;;;;;;;4.95;1.45;;;;;;;22.80;54.09;100629.78;4996211;28;20034;-64
2023/09/20 08:08:51;;;;;;;7.93;1.73;;;;;;;22.82;53.65;100625.13;4996859;28;20036;-65
2023/09/20 08:11:17;;;;;;;13.90;1.90;;;;;;;22.87;53.69;100638.75;4997335;28;20526;-65
2023/09/20 08:13:42;;;;;;;10.55;2.03;;;;;;;22.86;53.68;100630.97;4995890;28;20069;-63
2023/09/20 08:16:10;;;;;;;4.22;1.70;;;;;;;22.85;53.82;100642.59;4997099;28;20410;-65
2023/09/20 08:21:27;;;;;;;3.78;1.33;;;;;;;22.86;54.15;100645.09;4996915;28;20044;-64
2023/09/20 08:59:53;;;;;;;4.05;1.60;;;;;;;22.93;54.29;100655.91;4993259;28;20260;-65
2023/09/20 09:02:21;;;;;;;8.18;2.45;;;;;;;22.93;54.23;100655.91;4995490;28;20086;-66
2023/09/20 09:04:52;;;;;;;6.20;1.40;;;;;;;22.97;53.90;100657.22;4996117;28;20022;-64
2023/09/20 09:07:18;;;;;;;4.45;1.48;;;;;;;22.98;54.29;100637.66;4994671;28;20030;-66
2023/09/20 09:09:45;;;;;;;5.05;1.75;;;;;;;22.98;53.93;100651.75;4995369;28;20034;-67
2023/09/20 09:12:11;;;;;;;5.18;1.45;;;;;;;22.97;53.86;100650.09;4995833;28;20411;-67
2023/09/20 09:14:38;;;;;;;3.70;1.40;;;;;;;22.97;53.87;100655.44;4995548;28;20042;-65
2023/09/20 09:17:06;;;;;;;3.88;1.38;;;;;;;22.98;54.17;100642.97;4994474;28;20049;-63
2023/09/20 09:19:32;;;;;;;4.50;1.60;;;;;;;22.95;54.05;100645.94;4995541;28;20056;-63
2023/09/20 09:21:58;;;;;;;4.25;1.63;;;;;;;22.95;54.24;100643.28;4995287;28;20050;-66
2023/09/20 09:24:23;;;;;;;4.53;1.60;;;;;;;22.96;54.10;100635.16;4995788;28;20603;-64
2023/09/20 09:26:49;;;;;;;6.47;1.90;;;;;;;22.99;54.09;100644.63;4995997;28;20038;-65
2023/09/20 09:29:18;;;;;;;5.93;1.98;;;;;;;23.00;54.39;100646.28;4995526;28;20034;-65
2023/09/20 09:31:49;;;;;;;8.10;1.50;;;;;;;22.98;53.87;100646.44;4994940;28;21035;-67
2023/09/20 09:34:18;;;;;;;6.25;1.33;;;;;;;22.97;54.17;100634.16;4995590;28;20039;-65
2023/09/20 09:36:44;;;;;;;4.80;1.40;;;;;;;22.98;54.34;100630.50;4995771;28;20030;-66
2023/09/20 09:39:10;;;;;;;5.03;1.77;;;;;;;22.95;54.51;100645.94;4996127;28;20036;-66
2023/09/20 09:41:43;;;;;;;4.85;1.58;;;;;;;22.91;54.63;100632.16;5009863;28;20431;-65
2023/09/20 09:44:10;;;;;;;5.43;1.63;;;;;;;22.92;54.14;100635.63;4984763;28;20791;-67
2023/09/20 09:46:38;;;;;;;4.50;1.48;;;;;;;22.93;54.15;100635.47;4994600;28;20058;-65
2023/09/20 09:49:10;;;;;;;5.00;1.80;;;;;;;22.96;54.56;100631.66;4994579;28;20070;-66
2023/09/20 09:51:45;;;;;;;4.68;1.50;;;;;;;22.97;54.59;100628.00;4995449;28;20397;-65
2023/09/20 09:54:12;;;;;;;6.15;1.65;;;;;;;22.96;54.36;100627.19;4994388;28;20216;-66
2023/09/20 09:56:37;;;;;;;7.50;1.75;;;;;;;22.95;54.30;100622.84;4991535;28;20395;-64
2023/09/20 09:59:06;;;;;;;4.30;1.70;;;;;;;22.96;54.41;100621.84;4992825;28;20030;-66
2023/09/20 10:01:36;;;;;;;4.53;1.58;;;;;;;22.96;54.55;100619.19;4994129;28;20030;-66
2023/09/20 10:04:08;;;;;;;5.85;1.60;;;;;;;22.98;54.73;100619.03;4992653;28;20125;-63
2023/09/20 10:06:44;;;;;;;8.10;1.70;;;;;;;22.96;54.80;100619.19;4995418;28;20045;-65
2023/09/20 10:09:11;;;;;;;7.13;1.67;;;;;;;22.98;54.86;100614.56;4995426;28;20058;-62
2023/09/20 10:11:38;;;;;;;7.38;1.85;;;;;;;22.98;54.91;100606.56;4994136;28;20038;-64
2023/09/20 10:14:07;;;;;;;5.45;1.70;;;;;;;22.98;54.82;100611.88;4994721;28;20387;-63
2023/09/20 10:16:42;;;;;;;5.20;1.52;;;;;;;23.03;54.24;100615.91;4995144;28;20117;-64
2023/09/20 10:19:10;;;;;;;5.40;1.40;;;;;;;23.05;54.69;100608.59;4995614;28;20034;-63
2023/09/20 10:21:37;;;;;;;5.40;1.30;;;;;;;23.05;54.81;100603.28;4995438;28;20106;-63
2023/09/20 10:24:07;;;;;;;4.45;1.50;;;;;;;23.07;54.77;100596.00;4993692;28;20148;-67
2023/09/20 10:26:34;;;;;;;17.20;2.17;;;;;;;23.08;54.31;100597.66;4994880;28;20030;-65
2023/09/20 10:29:28;;;;;;;4.95;1.23;;;;;;;23.08;54.29;100593.19;4997025;28;20109;-67
2023/09/20 10:32:08;;;;;;;5.35;1.50;;;;;;;23.14;54.68;100612.97;4998274;28;20479;-62
2023/09/20 10:34:39;;;;;;;5.90;1.48;;;;;;;23.17;54.02;100597.50;4997855;28;20414;-63
2023/09/20 10:37:10;;;;;;;4.03;1.30;;;;;;;23.25;54.23;100587.91;4996835;28;20534;-63
2023/09/20 10:39:38;;;;;;;8.10;3.05;;;;;;;23.28;53.85;100582.25;4998439;28;20080;-65
2023/09/20 10:42:14;;;;;;;5.15;1.42;;;;;;;23.26;53.68;100582.41;4998111;28;20030;-64
2023/09/20 10:44:42;;;;;;;5.90;1.50;;;;;;;23.30;54.18;100586.38;4999218;28;20042;-66
2023/09/20 10:47:17;;;;;;;4.95;1.50;;;;;;;23.26;54.23;100578.94;4998813;28;20061;-64
2023/09/20 10:49:50;;;;;;;5.20;1.70;;;;;;;23.27;54.17;100569.94;4999273;28;20022;-62
2023/09/20 10:52:33;;;;;;;7.35;2.10;;;;;;;23.27;53.97;100584.06;4997691;28;20049;-65
2023/09/20 10:55:22;;;;;;;10.43;2.40;;;;;;;23.31;54.16;100572.13;4999830;28;20066;-64
2023/09/20 10:57:48;;;;;;;18.55;2.85;;;;;;;23.34;53.98;100566.47;4998170;28;20060;-64
2023/09/20 11:00:14;;;;;;;9.98;2.45;;;;;;;23.33;53.96;100563.97;4998853;28;20044;-65
2023/09/20 11:02:42;;;;;;;9.27;2.40;;;;;;;23.31;53.83;100555.34;4992815;28;20038;-66
2023/09/20 11:05:11;;;;;;;9.90;2.20;;;;;;;23.23;54.46;100569.44;4991214;28;20776;-66
2023/09/20 11:07:39;;;;;;;5.43;1.95;;;;;;;23.16;54.60;100561.31;4995613;28;20033;-66
2023/09/20 11:10:09;;;;;;;8.35;1.88;;;;;;;23.12;54.63;100559.16;4993931;28;20041;-63
2023/09/20 11:12:35;;;;;;;6.78;1.65;;;;;;;23.08;54.89;100555.13;4994878;28;20030;-66
2023/09/20 11:15:01;;;;;;;7.40;2.10;;;;;;;23.06;54.35;100560.59;4991961;28;20497;-68
2023/09/20 11:17:26;;;;;;;5.82;2.10;;;;;;;23.06;54.97;100565.91;4995943;28;20764;-66
2023/09/20 11:19:52;;;;;;;5.60;2.15;;;;;;;23.06;54.57;100557.94;5027084;22;20064;-65
2023/09/20 11:22:20;;;;;;;7.55;2.35;;;;;;;23.05;54.55;100569.56;5023203;28;20203;-66
2023/09/20 11:24:45;;;;;;;7.07;1.70;;;;;;;23.04;54.77;100562.59;5026234;28;20030;-65
2023/09/20 11:27:13;;;;;;;5.35;1.80;;;;;;;23.07;54.93;100556.94;5027073;28;20025;-65
2023/09/20 11:29:40;;;;;;;5.80;1.58;;;;;;;23.07;54.79;100558.78;5027522;28;20084;-65
2023/09/20 11:32:14;;;;;;;7.30;1.80;;;;;;;23.07;54.50;100556.94;5045061;22;20088;-64
2023/09/20 11:34:49;;;;;;;8.73;2.15;;;;;;;23.08;55.06;100547.16;5067409;28;20535;-68
2023/09/20 11:37:22;;;;;;;5.35;1.52;;;;;;;23.09;54.88;100564.78;5066936;28;20040;-65
2023/09/20 11:39:48;;;;;;;5.03;1.70;;;;;;;23.08;54.85;100563.97;5065851;28;20059;-67
2023/09/20 11:42:33;;;;;;;6.00;1.95;;;;;;;23.07;55.15;100564.09;5067123;28;20439;-64
2023/09/20 11:45:08;;;;;;;4.88;1.60;;;;;;;23.20;54.61;100560.97;5064855;28;20496;-65
2023/09/20 11:47:41;;;;;;;4.00;1.70;;;;;;;23.34;54.07;100562.97;5065673;28;20119;-63
2023/09/20 11:50:12;;;;;;;6.63;1.80;;;;;;;23.42;53.54;100556.84;5067071;28;20032;-66
2023/09/20 11:52:41;;;;;;;7.32;1.80;;;;;;;23.42;53.81;100555.00;5065897;28;20477;-65
2023/09/20 11:55:11;;;;;;;7.70;1.75;;;;;;;23.43;53.65;100556.69;5067560;28;20068;-66
2023/09/20 11:57:36;;;;;;;6.97;1.70;;;;;;;23.41;54.01;100563.16;5067396;28;20039;-67
2023/09/20 12:00:03;;;;;;;6.43;2.28;;;;;;;23.38;54.00;100558.16;5063256;28;20455;-67
2023/09/20 12:02:28;;;;;;;7.18;1.50;;;;;;;23.28;53.88;100560.97;5065313;28;20043;-68
2023/09/20 12:04:54;;;;;;;4.45;1.70;;;;;;;23.18;54.13;100561.16;5065747;28;20389;-66